KBTR/BTR METAR and TAF weather

Enter ICAO airport designator
Station Type Date Time Source
KBTR METAR 2019/12/09 05:53 UTC NOAA

KBTR 090553Z AUTO 00000KT 8SM BKN022 13/11 A2998 RMK AO2 SLP153 T01280106 10183 20122 402060111 56007


Station Type Date Time Source
KBTR Decoded METAR 2019/12/09 05:53 UTC NOAA

BATON ROUGE METRO RYAN FIELD, LA, United States (KBTR) 30-32N 91-09W 21M
Dec 09, 2019 - 12:53 AM EST / 2019.12.09 0553 UTC
Wind: Calm:0
Visibility: 8 mile(s):0
Sky conditions: mostly cloudy
Temperature: 55.0 F (12.8 C)
Dew Point: 51.1 F (10.6 C)
Relative Humidity: 86%
Pressure (altimeter): 29.98 in. Hg (1015 hPa)
Pressure tendency: 0.02 inches (0.7 hPa) lower than three hours ago
ob: KBTR 090553Z AUTO 00000KT 8SM BKN022 13/11 A2998 RMK AO2 SLP153 T01280106 10183 20122 402060111 56007
cycle: 6

Station Type Date Time Source
KBTR TAF 2019/12/09 06:36 UTC NOAA

TAF KBTR 090533Z 0906/1006 VRB03KT P6SM SCT120 BKN250
FM090900 VRB04KT 5SM BR SCT020 OVC100
FM091400 18005KT P6SM SCT020 OVC025
FM091900 22009KT P6SM SCT025 OVC045
FM100200 19005KT P6SM SCT015 OVC025

Example: see airport list